createdAt,value
2022-08-28T00:00:39.742Z,99.90
2022-08-28T00:03:06.603Z,99.90
2022-08-28T00:05:34.773Z,99.90
2022-08-28T00:08:01.531Z,99.90
2022-08-28T00:10:28.789Z,99.90
2022-08-28T00:12:58.167Z,99.90
2022-08-28T00:15:34.693Z,99.90
2022-08-28T00:18:03.651Z,99.90
2022-08-28T00:20:32.348Z,99.90
2022-08-28T00:23:00.346Z,99.90
2022-08-28T00:25:29.090Z,99.90
2022-08-28T00:27:58.351Z,99.90
2022-08-28T00:30:33.591Z,99.90
2022-08-28T00:33:06.984Z,99.90
2022-08-28T00:35:34.015Z,99.90
2022-08-28T00:38:00.857Z,99.90
2022-08-28T00:40:32.914Z,99.90
2022-08-28T00:43:05.073Z,99.90
2022-08-28T00:45:38.729Z,99.90
2022-08-28T00:48:06.700Z,99.90
2022-08-28T00:50:56.747Z,99.90
2022-08-28T00:53:30.160Z,99.90
2022-08-28T00:56:04.024Z,99.90
2022-08-28T00:58:34.066Z,99.90
2022-08-28T01:01:01.609Z,99.90
2022-08-28T01:03:28.513Z,99.90
2022-08-28T01:05:55.658Z,99.90
2022-08-28T01:08:23.045Z,99.90
2022-08-28T01:10:54.441Z,99.90
2022-08-28T01:13:23.467Z,99.90
2022-08-28T01:15:51.324Z,99.90
2022-08-28T01:18:19.191Z,99.90
2022-08-28T01:20:58.800Z,99.90
2022-08-28T01:23:53.306Z,99.90
2022-08-28T01:26:20.498Z,99.90
2022-08-28T01:28:48.042Z,99.90
2022-08-28T01:31:16.490Z,99.90
2022-08-28T01:33:45.353Z,99.90
2022-08-28T01:36:14.365Z,99.90
2022-08-28T01:38:43.063Z,99.90
2022-08-28T01:41:11.196Z,99.90
2022-08-28T01:43:40.047Z,99.90
2022-08-28T01:46:09.812Z,99.90
2022-08-28T01:48:41.094Z,99.90
2022-08-28T01:51:08.625Z,99.90
2022-08-28T01:53:35.361Z,99.90
2022-08-28T01:56:06.912Z,99.90
2022-08-28T01:58:37.933Z,99.90
2022-08-28T02:01:13.102Z,99.90
2022-08-28T02:03:40.254Z,99.90
2022-08-28T02:06:06.994Z,99.90
2022-08-28T02:08:33.754Z,99.90
2022-08-28T02:11:00.622Z,99.90
2022-08-28T02:13:27.571Z,99.90
2022-08-28T02:15:54.710Z,99.90
2022-08-28T02:18:21.843Z,99.90
2022-08-28T02:20:48.565Z,99.90
2022-08-28T02:23:15.309Z,99.90
2022-08-28T02:25:42.017Z,99.90
2022-08-28T02:28:09.192Z,99.90
2022-08-28T02:30:36.498Z,99.90
2022-08-28T02:33:03.602Z,99.90
2022-08-28T02:35:31.326Z,99.90
2022-08-28T02:38:00.566Z,99.90
2022-08-28T02:40:27.607Z,99.90
2022-08-28T02:42:54.414Z,99.90
2022-08-28T02:45:21.379Z,99.90
2022-08-28T02:47:50.930Z,99.90
2022-08-28T02:50:19.672Z,99.90
2022-08-28T02:52:46.756Z,99.90
2022-08-28T02:55:16.016Z,99.90
2022-08-28T02:57:42.857Z,99.90
2022-08-28T03:00:12.773Z,99.90
2022-08-28T03:02:40.918Z,99.90
2022-08-28T03:05:09.150Z,99.90
2022-08-28T03:07:35.981Z,99.90
2022-08-28T03:10:04.415Z,99.90
2022-08-28T03:12:31.069Z,99.90
2022-08-28T03:14:57.750Z,99.90
2022-08-28T03:17:24.428Z,99.90
2022-08-28T03:19:51.197Z,99.90
2022-08-28T03:22:39.521Z,99.90
2022-08-28T03:25:07.099Z,99.90
2022-08-28T03:27:33.989Z,99.90
2022-08-28T03:30:02.710Z,99.90
2022-08-28T03:32:29.646Z,99.90
2022-08-28T03:34:56.385Z,99.90
2022-08-28T03:37:23.102Z,99.90
2022-08-28T03:39:49.877Z,99.90
2022-08-28T03:42:17.239Z,99.90
2022-08-28T03:44:44.141Z,99.90
2022-08-28T03:47:12.228Z,99.90
2022-08-28T03:49:39.814Z,99.90
2022-08-28T03:52:06.690Z,99.90
2022-08-28T03:54:33.571Z,99.90
2022-08-28T03:57:00.415Z,99.90
2022-08-28T03:59:32.006Z,99.90
2022-08-28T04:02:00.382Z,99.90
2022-08-28T04:04:27.823Z,99.90
2022-08-28T04:06:54.565Z,99.90
2022-08-28T04:09:21.328Z,99.90
2022-08-28T04:11:47.996Z,99.90
2022-08-28T04:14:14.683Z,99.90
2022-08-28T04:16:41.487Z,99.90
2022-08-28T04:19:08.269Z,99.90
2022-08-28T04:21:34.921Z,99.90
2022-08-28T04:24:01.682Z,99.90
2022-08-28T04:26:29.250Z,99.90
2022-08-28T04:28:56.295Z,99.90
2022-08-28T04:31:32.027Z,99.90
2022-08-28T04:34:04.980Z,99.90
2022-08-28T04:36:33.545Z,99.90
2022-08-28T04:39:01.226Z,99.90
2022-08-28T04:41:28.793Z,99.90
2022-08-28T04:43:57.396Z,99.90
2022-08-28T04:46:25.184Z,99.90
2022-08-28T04:48:52.149Z,99.90
2022-08-28T04:51:20.289Z,99.90
2022-08-28T04:53:47.176Z,99.90
2022-08-28T04:56:15.124Z,99.90
2022-08-28T04:58:43.767Z,99.90
2022-08-28T05:01:24.611Z,99.90
2022-08-28T05:03:54.896Z,99.90
2022-08-28T05:06:22.821Z,99.90
2022-08-28T05:08:49.614Z,99.90
2022-08-28T05:11:33.650Z,99.90
2022-08-28T05:14:06.606Z,99.90
2022-08-28T05:16:39.717Z,99.90
2022-08-28T05:19:06.432Z,99.90
2022-08-28T05:21:33.146Z,99.90
2022-08-28T05:24:00.195Z,99.90
2022-08-28T05:26:29.611Z,99.90
2022-08-28T05:28:58.207Z,99.90
2022-08-28T05:31:26.400Z,99.90
2022-08-28T05:33:53.870Z,99.90
2022-08-28T05:36:22.943Z,99.90
2022-08-28T05:38:55.088Z,99.90
2022-08-28T05:41:25.029Z,99.90
2022-08-28T05:43:53.547Z,99.90
2022-08-28T05:46:21.216Z,99.90
2022-08-28T05:48:49.329Z,99.90
2022-08-28T05:51:22.328Z,99.90
2022-08-28T05:53:50.146Z,99.90
2022-08-28T05:56:22.022Z,99.90
2022-08-28T05:58:48.793Z,99.90
2022-08-28T06:01:22.693Z,99.90
2022-08-28T06:03:58.001Z,99.90
2022-08-28T06:06:27.034Z,99.90
2022-08-28T06:08:59.406Z,99.90
2022-08-28T06:11:30.677Z,99.90
2022-08-28T06:14:03.659Z,99.90
2022-08-28T06:16:32.521Z,99.90
2022-08-28T06:19:00.589Z,99.90
2022-08-28T06:21:28.461Z,99.90
2022-08-28T06:23:55.362Z,99.90
2022-08-28T06:26:23.074Z,99.90
2022-08-28T06:28:49.839Z,99.90
2022-08-28T06:31:23.584Z,99.90
2022-08-28T06:33:57.013Z,99.90
2022-08-28T06:36:27.295Z,99.90
2022-08-28T06:38:55.557Z,99.90
2022-08-28T06:41:22.308Z,99.90
2022-08-28T06:43:48.982Z,99.90
2022-08-28T06:46:16.302Z,99.90
2022-08-28T06:48:43.140Z,99.90
2022-08-28T06:51:12.117Z,99.90
2022-08-28T06:53:41.098Z,99.90
2022-08-28T06:56:26.553Z,99.90
2022-08-28T06:58:55.507Z,99.90
2022-08-28T07:01:26.906Z,99.90
2022-08-28T07:03:55.663Z,99.90
2022-08-28T07:06:23.601Z,99.90
2022-08-28T07:08:51.070Z,99.90
2022-08-28T07:11:19.798Z,99.90
2022-08-28T07:13:46.962Z,99.90
2022-08-28T07:16:15.944Z,99.90
2022-08-28T07:18:42.977Z,98.70
2022-08-28T07:21:12.475Z,96.30
2022-08-28T07:23:40.764Z,96.20
2022-08-28T07:26:10.928Z,94.40
2022-08-28T07:28:37.879Z,94.30
2022-08-28T07:31:09.845Z,93.90
2022-08-28T07:33:37.691Z,92.80
2022-08-28T07:36:07.092Z,92.10
2022-08-28T07:38:33.791Z,91.80
2022-08-28T07:41:00.478Z,92.70
2022-08-28T07:43:45.794Z,92.50
2022-08-28T07:46:12.843Z,91.00
2022-08-28T07:48:41.445Z,91.00
2022-08-28T07:51:09.539Z,90.10
2022-08-28T07:53:37.434Z,90.20
2022-08-28T07:56:05.221Z,90.50
2022-08-28T07:58:32.295Z,91.20
2022-08-28T08:00:59.301Z,91.60
2022-08-28T08:03:26.377Z,92.20
2022-08-28T08:05:59.360Z,92.30
2022-08-28T08:08:26.343Z,91.70
2022-08-28T08:11:18.517Z,91.80
2022-08-28T08:13:47.491Z,91.80
2022-08-28T08:16:20.252Z,92.20
2022-08-28T08:18:48.680Z,93.00
2022-08-28T08:21:17.713Z,93.40
2022-08-28T08:23:44.914Z,93.70
2022-08-28T08:26:14.841Z,93.80
2022-08-28T08:28:42.481Z,93.60
2022-08-28T08:31:11.022Z,93.80
2022-08-28T08:33:40.304Z,93.60
2022-08-28T08:36:07.555Z,93.70
2022-08-28T08:38:35.450Z,93.70
2022-08-28T08:41:06.748Z,94.00
2022-08-28T08:43:49.279Z,93.80
2022-08-28T08:46:16.124Z,93.40
2022-08-28T08:48:44.719Z,92.90
2022-08-28T08:51:20.525Z,92.30
2022-08-28T08:54:00.806Z,92.30
2022-08-28T08:56:34.693Z,92.10
2022-08-28T08:59:05.262Z,92.40
2022-08-28T09:02:01.270Z,92.40
2022-08-28T09:04:49.076Z,92.10
2022-08-28T09:07:18.603Z,92.00
2022-08-28T09:09:47.401Z,91.60
2022-08-28T09:12:18.960Z,90.90
2022-08-28T09:15:08.946Z,91.30
2022-08-28T09:17:38.293Z,91.40
2022-08-28T09:20:10.268Z,91.00
2022-08-28T09:22:40.111Z,91.40
2022-08-28T09:25:07.350Z,91.70
2022-08-28T09:27:37.915Z,91.30
2022-08-28T09:30:09.355Z,90.90
2022-08-28T09:32:44.470Z,91.40
2022-08-28T09:35:28.027Z,90.00
2022-08-28T09:37:55.573Z,88.50
2022-08-28T09:40:47.412Z,87.40
2022-08-28T09:43:27.656Z,85.90
2022-08-28T09:45:58.223Z,85.50
2022-08-28T09:48:35.915Z,87.10
2022-08-28T09:51:09.210Z,85.90
2022-08-28T09:53:53.505Z,85.70
2022-08-28T09:56:39.980Z,85.20
2022-08-28T09:59:13.328Z,85.60
2022-08-28T10:01:50.804Z,86.20
2022-08-28T10:04:55.407Z,86.90
2022-08-28T10:07:54.898Z,83.20
2022-08-28T10:10:39.249Z,82.70
2022-08-28T10:13:20.472Z,82.90
2022-08-28T10:16:13.847Z,77.60
2022-08-28T10:18:47.947Z,77.70
2022-08-28T10:21:43.107Z,77.10
2022-08-28T10:24:28.397Z,80.70
2022-08-28T10:27:31.623Z,77.70
2022-08-28T10:30:13.289Z,77.70
2022-08-28T10:32:56.745Z,79.40
2022-08-28T10:35:26.427Z,79.70
2022-08-28T10:38:16.898Z,79.30
2022-08-28T10:40:59.626Z,78.50
2022-08-28T10:43:38.558Z,77.70
2022-08-28T10:46:10.373Z,76.10
2022-08-28T10:49:08.939Z,76.50
2022-08-28T10:51:48.031Z,72.90
2022-08-28T10:54:27.254Z,74.50
2022-08-28T10:57:00.887Z,75.00
2022-08-28T10:59:31.787Z,73.80
2022-08-28T11:02:00.633Z,73.10
2022-08-28T11:04:29.394Z,72.50
2022-08-28T11:07:09.252Z,67.70
2022-08-28T11:09:39.614Z,69.70
2022-08-28T11:12:28.118Z,67.60
2022-08-28T11:14:54.815Z,69.60
2022-08-28T11:17:30.483Z,70.80
2022-08-28T11:20:18.177Z,67.70
2022-08-28T11:23:22.691Z,67.90
2022-08-28T11:25:54.819Z,68.40
2022-08-28T11:28:25.603Z,66.80
2022-08-28T11:31:00.953Z,67.00
2022-08-28T11:33:41.191Z,69.40
2022-08-28T11:36:20.151Z,67.90
2022-08-28T11:38:53.176Z,66.30
2022-08-28T11:41:31.683Z,63.30
2022-08-28T11:44:13.498Z,65.30
2022-08-28T11:46:51.782Z,64.40
2022-08-28T11:49:26.113Z,65.60
2022-08-28T11:52:04.812Z,64.80
2022-08-28T11:54:45.766Z,62.20
2022-08-28T11:57:40.464Z,63.80
2022-08-28T12:00:28.823Z,66.10
2022-08-28T12:03:10.453Z,63.70
2022-08-28T12:05:46.845Z,64.00
2022-08-28T12:08:56.635Z,61.40
2022-08-28T12:11:44.863Z,60.50
2022-08-28T12:14:27.470Z,62.90
2022-08-28T12:16:59.790Z,63.40
2022-08-28T12:19:40.242Z,63.50
2022-08-28T12:22:13.195Z,58.90
2022-08-28T12:24:59.175Z,63.80
2022-08-28T12:27:26.872Z,63.90
2022-08-28T12:29:56.445Z,63.90
2022-08-28T12:32:34.881Z,65.30
2022-08-28T12:35:02.097Z,63.50
2022-08-28T12:37:53.044Z,61.50
2022-08-28T12:40:50.148Z,64.00
2022-08-28T12:43:30.984Z,62.10
2022-08-28T12:46:02.437Z,61.90
2022-08-28T12:48:46.929Z,59.90
2022-08-28T12:51:18.338Z,62.40
2022-08-28T12:53:47.893Z,62.20
2022-08-28T12:56:18.084Z,63.60
2022-08-28T12:58:46.110Z,63.70
2022-08-28T13:01:23.216Z,63.90
2022-08-28T13:03:57.803Z,63.10
2022-08-28T13:06:31.162Z,62.90
2022-08-28T13:09:08.703Z,64.30
2022-08-28T13:11:38.684Z,65.50
2022-08-28T13:14:07.982Z,67.70
2022-08-28T13:16:42.217Z,66.30
2022-08-28T13:19:28.879Z,64.70
2022-08-28T13:22:08.353Z,65.00
2022-08-28T13:24:34.978Z,67.10
2022-08-28T13:27:18.953Z,65.30
2022-08-28T13:30:08.138Z,64.20
2022-08-28T13:32:37.862Z,65.10
2022-08-28T13:35:16.806Z,62.10
2022-08-28T13:37:53.861Z,63.60
2022-08-28T13:43:15.318Z,65.50
2022-08-28T13:45:45.216Z,67.50
2022-08-28T13:48:17.076Z,67.00
2022-08-28T13:50:48.254Z,66.70
2022-08-28T13:53:17.695Z,68.90
2022-08-28T13:55:45.380Z,67.90
2022-08-28T13:58:13.793Z,67.10
2022-08-28T14:00:44.304Z,66.50
2022-08-28T14:03:29.595Z,66.90
2022-08-28T14:05:56.582Z,66.20
2022-08-28T14:08:24.052Z,67.00
2022-08-28T14:10:50.812Z,68.00
2022-08-28T14:13:18.696Z,67.80
2022-08-28T14:15:45.724Z,67.00
2022-08-28T14:18:12.404Z,68.50
2022-08-28T14:20:39.592Z,68.70
2022-08-28T14:23:06.311Z,70.40
2022-08-28T14:25:37.092Z,68.20
2022-08-28T14:28:05.831Z,69.90
2022-08-28T14:30:32.521Z,71.00
2022-08-28T14:32:59.298Z,70.00
2022-08-28T14:35:26.656Z,69.90
2022-08-28T14:37:53.367Z,69.80
2022-08-28T14:40:20.064Z,68.60
2022-08-28T14:42:46.821Z,70.90
2022-08-28T14:45:13.758Z,69.50
2022-08-28T14:47:40.503Z,68.60
2022-08-28T14:50:07.668Z,70.00
2022-08-28T14:52:34.452Z,70.20
2022-08-28T14:55:02.104Z,68.20
2022-08-28T14:57:29.295Z,68.70
2022-08-28T14:59:55.971Z,70.50
2022-08-28T15:02:22.636Z,69.70
2022-08-28T15:04:49.331Z,70.90
2022-08-28T15:07:16.014Z,69.20
2022-08-28T15:09:43.188Z,70.40
2022-08-28T15:12:10.419Z,70.30
2022-08-28T15:14:37.163Z,69.90
2022-08-28T15:17:04.830Z,70.50
2022-08-28T15:19:31.674Z,69.80
2022-08-28T15:21:58.846Z,69.90
2022-08-28T15:24:31.365Z,70.20
2022-08-28T15:26:59.529Z,70.00
2022-08-28T15:29:27.997Z,68.80
2022-08-28T15:31:55.320Z,69.10
2022-08-28T15:34:26.449Z,68.50
2022-08-28T15:36:55.891Z,68.40
2022-08-28T15:39:46.067Z,68.60
2022-08-28T15:42:13.140Z,68.20
2022-08-28T15:44:40.414Z,68.70
2022-08-28T15:47:07.593Z,69.10
2022-08-28T15:49:46.589Z,70.80
2022-08-28T15:52:15.768Z,70.20
2022-08-28T15:54:42.986Z,68.90
2022-08-28T15:57:09.778Z,69.50
2022-08-28T15:59:39.951Z,71.10
2022-08-28T16:02:21.161Z,70.50
2022-08-28T16:04:48.575Z,70.80
2022-08-28T16:07:15.475Z,71.10
2022-08-28T16:09:42.172Z,70.80
2022-08-28T16:12:09.073Z,70.00
2022-08-28T16:14:36.194Z,70.10
2022-08-28T16:17:05.759Z,69.70
2022-08-28T16:19:40.917Z,70.20
2022-08-28T16:22:09.106Z,69.80
2022-08-28T16:24:36.853Z,67.70
2022-08-28T16:27:04.363Z,68.10
2022-08-28T16:29:33.262Z,64.20
2022-08-28T16:31:59.956Z,67.60
2022-08-28T16:34:31.476Z,68.70
2022-08-28T16:36:59.252Z,69.00
2022-08-28T16:39:27.265Z,67.70
2022-08-28T16:41:53.936Z,69.80
2022-08-28T16:44:22.864Z,68.70
2022-08-28T16:46:50.204Z,68.80
2022-08-28T16:49:17.615Z,69.80
2022-08-28T16:51:44.632Z,70.60
2022-08-28T16:54:11.343Z,70.90
2022-08-28T16:56:39.345Z,72.00
2022-08-28T16:59:10.437Z,70.80
2022-08-28T17:01:37.796Z,73.10
2022-08-28T17:04:07.722Z,75.00
2022-08-28T17:06:35.430Z,75.10
2022-08-28T17:09:02.124Z,74.30
2022-08-28T17:11:29.348Z,74.50
2022-08-28T17:13:56.833Z,73.70
2022-08-28T17:16:25.492Z,75.20
2022-08-28T17:18:53.170Z,76.90
2022-08-28T17:21:45.275Z,78.60
2022-08-28T17:24:12.854Z,83.20
2022-08-28T17:26:41.086Z,84.10
2022-08-28T17:29:08.477Z,84.90
2022-08-28T17:31:35.517Z,83.00
2022-08-28T17:34:02.407Z,84.30
2022-08-28T17:36:33.367Z,84.40
2022-08-28T17:39:05.423Z,83.10
2022-08-28T17:41:33.421Z,83.50
2022-08-28T17:44:01.712Z,83.40
2022-08-28T17:46:31.745Z,86.30
2022-08-28T17:49:01.315Z,86.10
2022-08-28T17:51:41.803Z,84.90
2022-08-28T17:54:11.656Z,83.40
2022-08-28T17:56:38.410Z,83.80
2022-08-28T17:59:05.406Z,83.80
2022-08-28T18:01:32.291Z,84.40
2022-08-28T18:03:59.049Z,84.70
2022-08-28T18:06:25.784Z,85.20
2022-08-28T18:08:52.500Z,87.00
2022-08-28T18:11:19.326Z,89.90
2022-08-28T18:13:46.524Z,90.20
2022-08-28T18:16:13.367Z,91.50
2022-08-28T18:18:40.552Z,91.20
2022-08-28T18:21:08.975Z,91.40
2022-08-28T18:23:35.761Z,92.00
2022-08-28T18:26:02.538Z,92.70
2022-08-28T18:28:29.453Z,93.80
2022-08-28T18:30:56.230Z,94.20
2022-08-28T18:33:24.415Z,94.40
2022-08-28T18:35:52.270Z,94.60
2022-08-28T18:38:21.443Z,94.90
2022-08-28T18:40:48.258Z,95.50
2022-08-28T18:43:15.004Z,96.10
2022-08-28T18:45:41.730Z,96.40
2022-08-28T18:48:08.454Z,96.90
2022-08-28T18:50:35.523Z,97.70
2022-08-28T18:53:02.629Z,98.60
2022-08-28T18:55:31.138Z,98.20
2022-08-28T18:57:59.723Z,97.30
2022-08-28T19:00:27.043Z,96.30
2022-08-28T19:02:54.532Z,95.50
2022-08-28T19:05:22.156Z,94.70
2022-08-28T19:07:49.163Z,94.10
2022-08-28T19:10:32.543Z,94.00
2022-08-28T19:13:00.886Z,94.10
2022-08-28T19:15:28.389Z,93.80
2022-08-28T19:17:55.164Z,94.00
2022-08-28T19:20:22.516Z,93.90
2022-08-28T19:22:49.462Z,95.00
2022-08-28T19:25:27.604Z,95.40
2022-08-28T19:27:56.368Z,95.90
2022-08-28T19:30:27.239Z,96.00
2022-08-28T19:32:54.830Z,95.50
2022-08-28T19:35:24.800Z,95.10
2022-08-28T19:37:52.685Z,95.30
2022-08-28T19:40:20.524Z,95.70
2022-08-28T19:42:47.940Z,96.10
2022-08-28T19:45:15.345Z,96.10
2022-08-28T19:47:42.556Z,96.30
2022-08-28T19:50:11.065Z,96.70
2022-08-28T19:52:38.386Z,96.50
2022-08-28T19:55:06.053Z,96.90
2022-08-28T19:57:34.221Z,97.30
2022-08-28T20:00:01.087Z,97.50
2022-08-28T20:02:28.484Z,97.50
2022-08-28T20:04:55.397Z,97.30
2022-08-28T20:07:22.326Z,97.00
2022-08-28T20:09:49.006Z,96.80
2022-08-28T20:12:16.053Z,96.50
2022-08-28T20:14:44.619Z,96.10
2022-08-28T20:17:11.587Z,95.70
2022-08-28T20:19:38.545Z,96.30
2022-08-28T20:22:05.824Z,96.40
2022-08-28T20:24:32.694Z,96.30
2022-08-28T20:26:59.356Z,96.30
2022-08-28T20:29:26.120Z,96.30
2022-08-28T20:31:54.141Z,96.50
2022-08-28T20:34:21.537Z,96.50
2022-08-28T20:36:49.175Z,95.70
2022-08-28T20:39:16.322Z,95.40
2022-08-28T20:41:44.280Z,96.00
2022-08-28T20:44:13.727Z,96.20
2022-08-28T20:46:42.177Z,96.60
2022-08-28T20:49:12.847Z,96.50
2022-08-28T20:51:54.401Z,96.20
2022-08-28T20:54:24.051Z,96.10
2022-08-28T20:56:52.045Z,96.40
2022-08-28T20:59:20.250Z,96.80
2022-08-28T21:01:49.158Z,97.20
2022-08-28T21:04:16.240Z,97.30
2022-08-28T21:06:46.477Z,97.70
2022-08-28T21:09:16.966Z,97.90
2022-08-28T21:11:44.253Z,97.40
2022-08-28T21:14:11.100Z,97.70
2022-08-28T21:16:39.237Z,97.60
2022-08-28T21:19:15.952Z,97.90
2022-08-28T21:21:44.049Z,98.00
2022-08-28T21:24:12.537Z,97.90
2022-08-28T21:26:43.795Z,98.20
2022-08-28T21:29:11.253Z,98.50
2022-08-28T21:31:40.874Z,98.60
2022-08-28T21:34:09.412Z,98.50
2022-08-28T21:36:38.382Z,98.60
2022-08-28T21:39:06.134Z,98.60
2022-08-28T21:41:33.189Z,98.60
2022-08-28T21:43:59.949Z,98.60
2022-08-28T21:46:27.761Z,98.80
2022-08-28T21:48:56.180Z,98.90
2022-08-28T21:51:24.191Z,99.00
2022-08-28T21:53:52.717Z,98.40
2022-08-28T21:56:25.244Z,98.50
2022-08-28T21:58:53.849Z,99.10
2022-08-28T22:01:24.393Z,99.30
2022-08-28T22:03:51.476Z,99.20
2022-08-28T22:06:20.217Z,99.30
2022-08-28T22:08:47.542Z,99.00
2022-08-28T22:11:14.874Z,99.00
2022-08-28T22:13:42.466Z,99.40
2022-08-28T22:16:10.502Z,99.50
2022-08-28T22:18:37.871Z,99.60
2022-08-28T22:21:23.410Z,99.60
2022-08-28T22:23:50.457Z,99.70
2022-08-28T22:26:20.246Z,99.40
2022-08-28T22:28:47.323Z,99.50
2022-08-28T22:31:14.216Z,99.30
2022-08-28T22:33:42.396Z,99.60
2022-08-28T22:36:10.733Z,99.90
2022-08-28T22:38:39.149Z,99.90
2022-08-28T22:41:06.951Z,99.70
2022-08-28T22:43:33.995Z,99.50
2022-08-28T22:46:00.791Z,99.30
2022-08-28T22:48:27.525Z,99.60
2022-08-28T22:51:09.411Z,99.80
2022-08-28T22:53:36.632Z,99.60
2022-08-28T22:56:03.715Z,99.70
2022-08-28T22:58:32.485Z,99.60
2022-08-28T23:01:12.974Z,99.60
2022-08-28T23:03:40.690Z,99.60
2022-08-28T23:06:07.732Z,99.60
2022-08-28T23:08:34.907Z,99.70
2022-08-28T23:11:01.790Z,99.90
2022-08-28T23:13:29.664Z,99.50
2022-08-28T23:15:56.523Z,99.50
2022-08-28T23:18:23.208Z,99.90
2022-08-28T23:20:50.497Z,99.90
2022-08-28T23:23:18.494Z,99.90
2022-08-28T23:25:45.301Z,99.60
2022-08-28T23:28:12.094Z,99.70
2022-08-28T23:30:41.210Z,99.90
2022-08-28T23:33:19.765Z,99.90
2022-08-28T23:35:51.276Z,99.90
2022-08-28T23:38:18.017Z,99.90
2022-08-28T23:40:44.826Z,99.90
2022-08-28T23:43:11.837Z,99.90
2022-08-28T23:45:42.459Z,99.90
2022-08-28T23:48:09.359Z,99.90
2022-08-28T23:50:36.344Z,99.90
2022-08-28T23:53:04.439Z,99.90
2022-08-28T23:55:31.751Z,99.90
2022-08-28T23:58:00.297Z,99.90
